KGFA/GFA METAR and TAF weather

Enter ICAO airport designator
Station Type Date Time Source
KGFA METAR 2018/12/13 07:58 UTC NOAA

KGFA 130758Z AUTO 23018KT 10SM BKN210 00/M09 A3007 RMK AO2 SLP212 T10021089 $


Station Type Date Time Source
KGFA Decoded METAR 2018/12/13 07:58 UTC NOAA

Malmstrom Air Force Base, MT, United States (KGFA) 47-30N 111-11W
Dec 13, 2018 - 02:58 AM EST / 2018.12.13 0758 UTC
Wind: from the SW (230 degrees) at 21 MPH (18 KT):0
Visibility: 10 mile(s):0
Sky conditions: mostly cloudy
Temperature: 31.6 F (-0.2 C)
Windchill: 19 F (-7 C):1
Dew Point: 16.0 F (-8.9 C)
Relative Humidity: 51%
Pressure (altimeter): 30.07 in. Hg (1018 hPa)
ob: KGFA 130758Z AUTO 23018KT 10SM BKN210 00/M09 A3007 RMK AO2 SLP212 T10021089
cycle: 8

Station Type Date Time Source
KGFA TAF 2018/12/13 04:08 UTC NOAA

TAF KGFA 130405Z 1304/1410 22014KT 9999 FEW150 QNH3006INS
BECMG 1313/1314 22015G25KT 9999 SCT120 510003 QNH3002INS
TEMPO 1316/1322 22025G35KT 510006 TX06/1321Z TNM04/1308Z


Example: see airport list